Time;durP1;ratioP1;P1;durP2;ratioP2;P2;SDS_P1;SDS_P2;PMS_P1;PMS_P2;Temp;Humidity;BMP_temperature;BMP_pressure;BME280_temperature;BME280_humidity;BME280_pressure;Samples;Min_cycle;Max_cycle;Signal;HPM_P1;HPM_P2
2021/09/10 00:02:18;;;;;;;15.75;11.23;;;;;;;23.83;60.03;101048.66;4991592;28;114462;-64
2021/09/10 00:04:46;;;;;;;15.40;11.65;;;;;;;23.82;60.02;101046.94;4985239;28;113892;-64
2021/09/10 00:07:13;;;;;;;16.90;11.07;;;;;;;23.80;60.06;101048.94;4992605;28;124302;-64
2021/09/10 00:09:40;;;;;;;15.40;11.02;;;;;;;23.79;60.29;101051.78;4988771;28;124661;-64
2021/09/10 00:12:07;;;;;;;16.08;11.45;;;;;;;23.77;60.10;101051.94;4992542;28;114153;-64
2021/09/10 00:14:34;;;;;;;17.25;11.68;;;;;;;23.76;60.02;101052.06;4991446;28;114433;-64
2021/09/10 00:17:02;;;;;;;16.70;11.25;;;;;;;23.75;60.31;101056.59;4993494;28;123410;-64
2021/09/10 00:19:29;;;;;;;15.30;11.52;;;;;;;23.74;60.16;101049.50;4992438;28;124679;-64
2021/09/10 00:21:56;;;;;;;17.23;11.15;;;;;;;23.74;60.36;101054.91;4986110;28;115931;-64
2021/09/10 00:24:23;;;;;;;16.02;11.02;;;;;;;23.73;60.20;101053.22;4990065;28;115113;-64
2021/09/10 00:26:50;;;;;;;14.95;10.13;;;;;;;23.71;60.36;101049.81;4993790;28;123926;-64
2021/09/10 00:29:17;;;;;;;14.88;11.13;;;;;;;23.70;60.37;101053.53;4991013;28;124856;-64
2021/09/10 00:31:44;;;;;;;16.38;11.15;;;;;;;23.68;60.50;101052.81;4992300;28;115142;-64
2021/09/10 00:34:12;;;;;;;17.60;11.35;;;;;;;23.65;60.44;101055.81;4991256;28;114049;-65
2021/09/10 00:36:39;;;;;;;16.25;10.48;;;;;;;23.61;60.46;101054.41;4992260;28;123892;-64
2021/09/10 00:39:06;;;;;;;14.70;11.15;;;;;;;23.59;60.57;101051.00;4992933;28;123773;-64
2021/09/10 00:41:33;;;;;;;15.45;11.00;;;;;;;23.55;60.62;101049.63;4991377;28;114877;-64
2021/09/10 00:44:02;;;;;;;14.32;10.50;;;;;;;23.51;60.56;101058.00;4991068;28;114358;-64
2021/09/10 00:46:29;;;;;;;13.93;10.27;;;;;;;23.50;60.73;101058.16;4992588;28;124600;-64
2021/09/10 00:48:57;;;;;;;14.65;10.38;;;;;;;23.49;60.70;101051.91;5004298;28;123486;-64
2021/09/10 00:51:25;;;;;;;14.68;10.43;;;;;;;23.46;60.77;101052.19;4987394;28;114177;-64
2021/09/10 00:53:52;;;;;;;15.88;10.60;;;;;;;23.44;60.81;101048.78;4990798;28;114931;-64
2021/09/10 00:56:20;;;;;;;15.50;10.90;;;;;;;23.44;60.70;101053.34;4992101;28;124174;-64
2021/09/10 00:58:47;;;;;;;16.63;10.70;;;;;;;23.42;60.82;101058.91;4988338;28;124055;-64
2021/09/10 01:01:14;;;;;;;14.13;9.65;;;;;;;23.41;60.69;101056.34;4992203;28;114129;-64
2021/09/10 01:03:41;;;;;;;15.55;10.15;;;;;;;23.40;60.46;101052.78;4993287;28;115420;-64
2021/09/10 01:06:10;;;;;;;14.88;10.27;;;;;;;23.37;60.63;101058.47;4991834;28;123878;-64
2021/09/10 01:08:38;;;;;;;14.38;9.27;;;;;;;23.35;60.56;101055.06;4989572;28;124392;-64
2021/09/10 01:11:06;;;;;;;16.92;10.45;;;;;;;23.32;60.57;101055.38;4990672;28;115060;-64
2021/09/10 01:13:34;;;;;;;12.68;9.15;;;;;;;23.29;60.53;101058.38;4992093;28;114733;-64
2021/09/10 01:16:03;;;;;;;14.90;9.80;;;;;;;23.26;60.56;101055.94;4991982;28;124912;-64
2021/09/10 01:18:31;;;;;;;14.77;10.00;;;;;;;23.23;60.70;101058.97;4989375;28;122886;-64
2021/09/10 01:20:58;;;;;;;14.40;10.30;;;;;;;23.19;60.88;101061.09;4986198;28;113123;-64
2021/09/10 01:23:25;;;;;;;13.98;9.85;;;;;;;23.16;60.78;101060.53;4985987;28;114337;-64
2021/09/10 01:25:52;;;;;;;16.42;9.85;;;;;;;23.13;60.84;101062.53;4990145;28;124057;-64
2021/09/10 01:28:19;;;;;;;15.80;10.27;;;;;;;23.11;60.86;101060.97;4988026;28;124044;-64
2021/09/10 01:30:46;;;;;;;14.30;9.82;;;;;;;23.09;60.95;101061.13;4991175;28;114076;-64
2021/09/10 01:33:14;;;;;;;13.30;9.00;;;;;;;23.08;60.96;101058.56;4989030;28;114387;-64
2021/09/10 01:35:41;;;;;;;13.02;9.45;;;;;;;23.05;60.77;101058.84;4970625;28;124362;-64
2021/09/10 01:38:09;;;;;;;12.60;8.60;;;;;;;23.03;60.97;101056.28;4979430;28;124120;-64
2021/09/10 01:40:38;;;;;;;12.93;8.82;;;;;;;23.02;60.87;101051.88;4988287;28;114698;-64
2021/09/10 01:43:06;;;;;;;15.07;9.02;;;;;;;22.99;60.82;101057.56;4988982;28;114174;-64
2021/09/10 01:45:34;;;;;;;13.07;9.25;;;;;;;22.97;60.89;101056.84;4990097;28;123334;-64
2021/09/10 01:48:01;;;;;;;13.23;8.98;;;;;;;22.95;60.89;101053.44;4990870;28;123972;-65
2021/09/10 01:50:28;;;;;;;14.60;8.73;;;;;;;22.92;60.76;101048.31;5006496;28;113577;-64
2021/09/10 01:52:55;;;;;;;13.07;8.50;;;;;;;22.91;60.99;101046.63;4987906;28;113862;-64
2021/09/10 01:55:22;;;;;;;13.57;9.32;;;;;;;22.88;60.88;101044.19;4987985;28;123953;-64
2021/09/10 01:57:50;;;;;;;13.38;8.93;;;;;;;22.86;61.03;101038.94;4972345;28;123743;-64
2021/09/10 02:00:19;;;;;;;13.50;9.55;;;;;;;22.85;61.10;101039.06;4977040;28;114290;-64
2021/09/10 02:02:46;;;;;;;13.20;9.25;;;;;;;22.82;61.07;101031.28;4987907;28;115150;-64
2021/09/10 02:05:14;;;;;;;13.90;8.88;;;;;;;22.80;61.08;101033.28;4988948;28;123857;-64
2021/09/10 02:07:41;;;;;;;12.25;8.65;;;;;;;22.79;61.06;101031.56;4986466;28;123818;-64
2021/09/10 02:10:11;;;;;;;13.20;8.75;;;;;;;22.78;61.06;101040.69;4970022;28;114146;-64
2021/09/10 02:12:39;;;;;;;12.52;8.50;;;;;;;22.76;61.11;101031.88;4971179;28;114084;-64
2021/09/10 02:15:10;;;;;;;12.32;8.55;;;;;;;22.74;60.99;101038.25;4977586;28;124051;-64
2021/09/10 02:17:37;;;;;;;13.30;9.05;;;;;;;22.72;61.06;101032.16;4936998;28;1096452;-64
2021/09/10 02:20:05;;;;;;;11.75;8.20;;;;;;;22.69;61.21;101035.13;4989025;28;114184;-64
2021/09/10 02:22:32;;;;;;;11.75;8.48;;;;;;;22.68;61.30;101036.13;4989902;28;114482;-64
2021/09/10 02:24:59;;;;;;;12.65;8.45;;;;;;;22.66;61.43;101043.53;4987748;28;124324;-64
2021/09/10 02:27:26;;;;;;;12.70;8.52;;;;;;;22.65;61.42;101041.81;4989448;28;124648;-64
2021/09/10 02:29:54;;;;;;;11.88;8.32;;;;;;;22.64;61.65;101039.25;4989330;28;114524;-64
2021/09/10 02:32:21;;;;;;;12.50;8.65;;;;;;;22.63;61.65;101043.81;4989950;28;114235;-64
2021/09/10 02:34:48;;;;;;;12.95;8.55;;;;;;;22.62;61.58;101052.91;4990181;28;124765;-64
2021/09/10 02:37:15;;;;;;;14.38;8.48;;;;;;;22.61;61.49;101045.78;4987109;28;124546;-63
2021/09/10 02:39:42;;;;;;;14.35;9.45;;;;;;;22.61;61.53;101045.78;4992013;28;113894;-64
2021/09/10 02:42:09;;;;;;;11.32;9.05;;;;;;;22.60;61.53;101049.47;4992145;28;114163;-64
2021/09/10 02:44:36;;;;;;;13.52;9.55;;;;;;;22.59;61.69;101041.53;4987528;28;124402;-64
2021/09/10 02:47:04;;;;;;;12.98;9.93;;;;;;;22.56;61.64;101042.66;4974435;28;123214;-63
2021/09/10 02:49:31;;;;;;;14.35;9.93;;;;;;;22.53;61.54;101042.97;4985709;28;115123;-64
2021/09/10 02:51:58;;;;;;;14.50;9.82;;;;;;;22.51;61.74;101034.16;4978430;28;115488;-64
2021/09/10 02:54:26;;;;;;;14.48;9.55;;;;;;;22.48;61.72;101031.72;4990488;28;124405;-64
2021/09/10 02:56:54;;;;;;;14.43;9.52;;;;;;;22.45;61.81;101040.09;4990579;28;125331;-63
2021/09/10 02:59:22;;;;;;;15.00;10.27;;;;;;;22.45;61.88;101040.09;4986330;28;114219;-64
2021/09/10 03:01:49;;;;;;;13.35;9.48;;;;;;;22.43;61.96;101047.50;4987910;28;114142;-64
2021/09/10 03:04:17;;;;;;;12.52;8.95;;;;;;;22.44;61.88;101043.81;4989793;28;124116;-64
2021/09/10 03:06:44;;;;;;;16.90;9.82;;;;;;;22.44;61.96;101038.41;4991928;28;124179;-64
2021/09/10 03:09:11;;;;;;;14.45;9.38;;;;;;;22.43;61.87;101042.09;4982287;28;114107;-64
2021/09/10 03:11:38;;;;;;;14.18;9.88;;;;;;;22.40;61.90;101037.00;4989007;28;113877;-64
2021/09/10 03:14:05;;;;;;;13.35;9.20;;;;;;;22.39;61.98;101040.69;4987944;28;124301;-64
2021/09/10 03:16:33;;;;;;;14.73;9.90;;;;;;;22.38;62.11;101038.97;4989213;28;123928;-64
2021/09/10 03:19:00;;;;;;;13.65;9.68;;;;;;;22.37;62.05;101038.13;4989761;28;114440;-63
2021/09/10 03:21:27;;;;;;;14.35;9.70;;;;;;;22.38;61.98;101041.66;4974510;28;114539;-64
2021/09/10 03:23:55;;;;;;;14.43;9.02;;;;;;;22.37;61.94;101037.28;4980138;28;124093;-64
2021/09/10 03:26:22;;;;;;;11.82;8.77;;;;;;;22.38;62.06;101044.34;4990607;28;123718;-64
2021/09/10 03:28:50;;;;;;;13.48;8.65;;;;;;;22.35;61.93;101040.94;4986675;28;114103;-64
2021/09/10 03:31:17;;;;;;;12.32;8.80;;;;;;;22.35;62.19;101035.56;4975993;28;114595;-64
2021/09/10 03:33:44;;;;;;;13.30;8.27;;;;;;;22.34;62.13;101033.88;4989644;28;123240;-64
2021/09/10 03:36:12;;;;;;;13.90;8.68;;;;;;;22.34;62.27;101017.66;4991788;28;123800;-64
2021/09/10 03:38:39;;;;;;;12.90;8.10;;;;;;;22.35;62.21;101022.06;4992414;28;114747;-64
2021/09/10 03:41:07;;;;;;;15.45;8.30;;;;;;;22.37;62.25;101021.06;5004782;28;114743;-64
2021/09/10 03:43:35;;;;;;;11.80;8.52;;;;;;;22.35;62.20;101024.75;4990812;28;123357;-64
2021/09/10 03:46:02;;;;;;;11.68;8.32;;;;;;;22.37;62.36;101023.78;4993383;28;123805;-64
2021/09/10 03:48:29;;;;;;;14.70;8.38;;;;;;;22.37;62.26;101026.47;4982371;28;114613;-64
2021/09/10 03:50:56;;;;;;;12.13;8.20;;;;;;;22.38;62.14;101020.06;4991241;28;113810;-64
2021/09/10 03:53:25;;;;;;;13.82;8.60;;;;;;;22.38;62.25;101028.16;4992163;28;124764;-64
2021/09/10 03:55:52;;;;;;;12.63;8.80;;;;;;;22.37;62.38;101023.78;4993032;28;124647;-64
2021/09/10 03:58:19;;;;;;;11.63;8.43;;;;;;;22.36;62.33;101031.03;4992908;28;114174;-64
2021/09/10 04:00:46;;;;;;;13.00;8.18;;;;;;;22.34;62.22;101020.38;5006657;28;114893;-64
2021/09/10 04:03:13;;;;;;;11.70;8.52;;;;;;;22.33;62.32;101034.84;4980405;28;124168;-64
2021/09/10 04:05:43;;;;;;;12.98;8.90;;;;;;;22.33;62.38;101042.09;4993005;28;124284;-64
2021/09/10 04:08:11;;;;;;;12.25;8.63;;;;;;;22.31;62.42;101036.84;5009021;28;113127;-64
2021/09/10 04:10:38;;;;;;;12.93;8.23;;;;;;;22.30;62.39;101037.84;4993189;28;114067;-64
2021/09/10 04:13:07;;;;;;;12.52;8.70;;;;;;;22.31;62.64;101039.53;4992534;28;124325;-64
2021/09/10 04:15:34;;;;;;;12.57;8.60;;;;;;;22.32;62.72;101035.84;4992492;28;123756;-64
2021/09/10 04:18:02;;;;;;;11.02;8.90;;;;;;;22.33;62.59;101042.94;5002374;22;114596;-66
2021/09/10 04:20:30;;;;;;;11.73;7.88;;;;;;;22.33;62.46;101036.69;4972948;28;112374;-65
2021/09/10 04:22:57;;;;;;;12.52;8.57;;;;;;;22.33;62.59;101047.50;4971216;28;124589;-65
2021/09/10 04:25:24;;;;;;;11.85;8.45;;;;;;;22.33;62.57;101037.53;4972192;28;124226;-65
2021/09/10 04:27:51;;;;;;;14.00;8.77;;;;;;;22.32;62.42;101041.25;4972892;28;114441;-65
2021/09/10 04:30:18;;;;;;;10.77;8.43;;;;;;;22.32;62.49;101040.38;4970470;28;115209;-65
2021/09/10 04:32:45;;;;;;;13.63;8.70;;;;;;;22.31;62.57;101044.94;4973906;28;124804;-63
2021/09/10 04:35:14;;;;;;;10.93;8.38;;;;;;;22.31;62.36;101044.94;4971459;28;123945;-63
2021/09/10 04:37:41;;;;;;;12.55;9.05;;;;;;;22.29;62.44;101041.53;4965448;28;114198;-63
2021/09/10 04:40:09;;;;;;;11.35;8.30;;;;;;;22.29;62.46;101036.13;4967534;28;114184;-65
2021/09/10 04:42:36;;;;;;;12.43;8.98;;;;;;;22.27;62.40;101038.13;4959692;28;124856;-65
2021/09/10 04:45:04;;;;;;;14.45;9.05;;;;;;;22.25;62.54;101040.09;4972590;28;124225;-64
2021/09/10 04:47:31;;;;;;;11.82;8.50;;;;;;;22.26;62.50;101036.41;4959272;28;114283;-65
2021/09/10 04:49:58;;;;;;;14.10;8.95;;;;;;;22.26;62.40;101036.41;4975009;28;113212;-65
2021/09/10 04:52:26;;;;;;;14.15;9.32;;;;;;;22.24;62.33;101038.34;4969510;28;124932;-64
2021/09/10 04:54:53;;;;;;;12.80;8.52;;;;;;;22.23;62.30;101042.06;4962082;28;124192;-65
2021/09/10 04:57:20;;;;;;;10.68;8.30;;;;;;;22.20;62.52;101036.94;4969820;28;114955;-65
2021/09/10 04:59:48;;;;;;;12.13;8.32;;;;;;;22.20;62.45;101039.63;4987875;28;114118;-64
2021/09/10 05:02:15;;;;;;;11.77;8.63;;;;;;;22.19;62.46;101043.34;4957660;28;124282;-64
2021/09/10 05:04:42;;;;;;;13.23;8.98;;;;;;;22.17;62.52;101042.63;4968978;28;124115;-65
2021/09/10 05:07:09;;;;;;;13.68;8.65;;;;;;;22.16;62.60;101049.00;4971751;28;114140;-64
2021/09/10 05:09:37;;;;;;;14.20;8.52;;;;;;;22.16;62.71;101046.31;4972736;28;114031;-62
2021/09/10 05:12:04;;;;;;;11.18;8.20;;;;;;;22.16;62.62;101049.00;4972059;28;124019;-62
2021/09/10 05:14:31;;;;;;;13.18;8.73;;;;;;;22.15;62.61;101044.59;4970603;28;124051;-62
2021/09/10 05:16:58;;;;;;;13.38;8.73;;;;;;;22.13;62.45;101049.25;4958774;28;115423;-64
2021/09/10 05:19:26;;;;;;;13.68;9.52;;;;;;;22.12;62.63;101044.88;4988787;28;113836;-64
2021/09/10 05:21:53;;;;;;;12.23;8.63;;;;;;;22.12;62.68;101047.59;4966260;28;124354;-64
2021/09/10 05:24:20;;;;;;;13.88;8.60;;;;;;;22.12;62.71;101050.28;4965733;28;123754;-64
2021/09/10 05:26:47;;;;;;;11.15;7.97;;;;;;;22.14;62.84;101053.69;4961730;28;114390;-65
2021/09/10 05:29:14;;;;;;;12.07;8.55;;;;;;;22.15;62.93;101055.38;4970859;28;114219;-64
2021/09/10 05:31:42;;;;;;;13.02;8.52;;;;;;;22.17;62.86;101053.41;4970266;28;124032;-64
2021/09/10 05:34:11;;;;;;;13.10;9.00;;;;;;;22.19;62.90;101056.81;4989088;28;122714;-64
2021/09/10 05:36:39;;;;;;;12.13;8.32;;;;;;;22.22;63.01;101066.47;4973618;28;114016;-64
2021/09/10 05:39:06;;;;;;;12.43;9.00;;;;;;;22.22;63.02;101067.31;4961126;28;114155;-64
2021/09/10 05:41:33;;;;;;;12.93;8.55;;;;;;;22.24;63.11;101069.88;4985108;28;124123;-65
2021/09/10 05:44:00;;;;;;;12.43;8.65;;;;;;;22.26;63.06;101079.56;4965564;28;124003;-66
2021/09/10 05:46:28;;;;;;;13.70;8.95;;;;;;;22.28;63.18;101069.50;4965551;28;114762;-66
2021/09/10 05:48:55;;;;;;;13.85;8.73;;;;;;;22.31;63.16;101069.22;4968231;28;113927;-66
2021/09/10 05:51:22;;;;;;;12.15;8.38;;;;;;;22.33;63.11;101080.72;4958465;28;123982;-66
2021/09/10 05:53:49;;;;;;;11.93;8.77;;;;;;;22.36;63.15;101079.59;4969980;28;123866;-66
2021/09/10 05:56:16;;;;;;;12.75;8.77;;;;;;;22.39;63.25;101086.56;4988790;28;113473;-66
2021/09/10 05:58:44;;;;;;;15.40;8.88;;;;;;;22.42;63.29;101089.00;4970109;28;114558;-66
2021/09/10 06:01:11;;;;;;;12.88;8.43;;;;;;;22.44;63.29;101081.59;4969886;28;124065;-66
2021/09/10 06:03:38;;;;;;;12.02;8.18;;;;;;;22.47;63.21;101087.56;4972514;28;124174;-66
2021/09/10 06:06:08;;;;;;;11.70;8.65;;;;;;;22.51;63.36;101088.16;4971839;28;115976;-66
2021/09/10 06:08:37;;;;;;;11.52;8.23;;;;;;;22.57;63.40;101084.88;4972477;28;115883;-66
2021/09/10 06:11:05;;;;;;;12.05;8.75;;;;;;;22.62;63.41;101096.13;4970704;28;124809;-66
2021/09/10 06:13:32;;;;;;;12.13;8.10;;;;;;;22.69;63.37;101101.78;4970503;28;123956;-66
2021/09/10 06:16:00;;;;;;;12.43;8.15;;;;;;;22.73;63.29;101098.66;4972464;28;114170;-66
2021/09/10 06:18:28;;;;;;;11.10;8.13;;;;;;;22.78;63.35;101100.09;4970007;28;118145;-66
2021/09/10 06:20:56;;;;;;;12.27;8.52;;;;;;;22.82;63.31;101101.50;4969750;28;123616;-66
2021/09/10 06:23:23;;;;;;;10.82;7.90;;;;;;;22.85;63.15;101112.00;4968501;28;124571;-66
2021/09/10 06:25:50;;;;;;;11.65;8.10;;;;;;;22.90;63.16;101115.13;4953242;28;112902;-66
2021/09/10 06:28:17;;;;;;;14.35;8.70;;;;;;;22.93;63.11;101115.72;4970722;28;114339;-66
2021/09/10 06:30:44;;;;;;;11.63;8.73;;;;;;;22.96;63.10;101113.72;4963189;28;123987;-66
2021/09/10 06:33:12;;;;;;;11.25;8.05;;;;;;;22.98;62.95;101112.59;4966814;28;122125;-66
2021/09/10 06:35:39;;;;;;;14.45;8.52;;;;;;;23.01;63.05;101123.09;4971096;28;114227;-66
2021/09/10 06:38:06;;;;;;;10.63;8.30;;;;;;;23.02;63.13;101124.81;4970195;28;114483;-66
2021/09/10 06:40:33;;;;;;;10.55;7.93;;;;;;;23.05;62.85;101124.53;4970200;28;123748;-66
2021/09/10 06:43:00;;;;;;;11.43;7.85;;;;;;;23.05;62.96;101132.66;4969569;28;123940;-66
2021/09/10 06:45:28;;;;;;;11.80;8.80;;;;;;;23.06;62.84;101126.25;4971475;28;114779;-66
2021/09/10 06:47:55;;;;;;;10.35;7.90;;;;;;;23.09;62.77;101134.09;4962516;28;114541;-66
2021/09/10 06:50:23;;;;;;;10.85;7.70;;;;;;;23.11;62.72;101129.38;4968172;28;124085;-67
2021/09/10 06:52:50;;;;;;;11.07;8.07;;;;;;;23.13;62.68;101124.69;4952859;28;124571;-66
2021/09/10 06:55:17;;;;;;;11.75;8.38;;;;;;;23.15;62.69;101131.78;4953901;28;115729;-66
2021/09/10 06:57:45;;;;;;;12.85;8.57;;;;;;;23.15;62.65;101139.88;4968570;28;115309;-66
2021/09/10 07:00:15;;;;;;;13.40;8.55;;;;;;;23.16;62.80;101136.19;4967366;28;124014;-66
2021/09/10 07:02:42;;;;;;;11.30;8.43;;;;;;;23.17;62.65;101135.19;4955072;28;123826;-66
2021/09/10 07:05:10;;;;;;;11.93;8.18;;;;;;;23.18;62.73;101134.22;4969996;28;114046;-66
2021/09/10 07:07:37;;;;;;;11.55;8.02;;;;;;;;;;4970500;28;113886;-66
2021/09/10 07:10:05;;;;;;;13.07;8.23;;;;;;;23.21;62.59;101144.75;4970535;28;123039;-66
2021/09/10 07:12:32;;;;;;;11.55;8.40;;;;;;;23.22;62.71;101141.03;4975011;28;122743;-66
2021/09/10 07:14:59;;;;;;;9.88;7.88;;;;;;;23.23;62.51;101142.75;4972976;28;114599;-66
2021/09/10 07:17:27;;;;;;;11.55;7.93;;;;;;;23.23;62.63;101148.16;4991599;28;112870;-66
2021/09/10 07:19:55;;;;;;;13.73;8.13;;;;;;;23.24;62.62;101152.53;4987420;28;124572;-66
2021/09/10 07:22:22;;;;;;;12.35;8.40;;;;;;;23.26;62.81;101150.53;4962969;28;124710;-66
2021/09/10 07:24:49;;;;;;;11.00;7.82;;;;;;;23.28;62.62;101151.25;4970169;28;114797;-66
2021/09/10 07:27:16;;;;;;;10.90;8.13;;;;;;;23.29;62.51;101152.97;4972401;28;113999;-66
2021/09/10 07:29:44;;;;;;;11.68;8.23;;;;;;;23.31;62.69;101150.97;4971592;28;124330;-66
2021/09/10 07:32:11;;;;;;;12.65;8.52;;;;;;;23.33;62.54;101148.97;4960753;28;124276;-66
2021/09/10 07:34:38;;;;;;;12.38;8.57;;;;;;;23.37;62.63;101161.19;4962411;28;114762;-66
2021/09/10 07:37:05;;;;;;;12.38;8.65;;;;;;;23.41;62.68;101151.78;4972341;28;114314;-66
2021/09/10 07:39:32;;;;;;;12.85;8.50;;;;;;;23.45;62.81;101155.94;4973626;28;124855;-66
2021/09/10 07:41:59;;;;;;;10.32;8.30;;;;;;;23.51;62.73;101163.47;4973765;28;122884;-66
2021/09/10 07:44:26;;;;;;;11.40;7.93;;;;;;;23.58;62.61;101173.69;4969646;28;115144;-66
2021/09/10 07:46:54;;;;;;;10.73;8.20;;;;;;;23.62;62.65;101165.16;4975292;28;115121;-66
2021/09/10 07:49:22;;;;;;;13.30;8.52;;;;;;;23.67;62.57;101172.81;4972650;28;122801;-66
2021/09/10 07:51:50;;;;;;;11.35;8.02;;;;;;;23.72;62.67;101175.94;4973683;28;124005;-66
2021/09/10 07:54:18;;;;;;;12.27;8.90;;;;;;;23.78;62.72;101178.03;4974416;28;114740;-67
2021/09/10 07:56:45;;;;;;;11.15;8.65;;;;;;;23.83;62.52;101178.50;4975074;28;113803;-65
2021/09/10 07:59:12;;;;;;;11.30;8.05;;;;;;;23.89;62.31;101182.47;4977754;28;123025;-65
2021/09/10 08:01:39;;;;;;;9.95;7.95;;;;;;;23.94;62.29;101179.28;4973219;28;123971;-65
2021/09/10 08:04:07;;;;;;;12.77;8.02;;;;;;;23.99;62.51;101182.41;4972238;28;113794;-65
2021/09/10 08:06:36;;;;;;;13.13;8.38;;;;;;;24.04;62.28;101190.94;4974814;28;113268;-65
2021/09/10 08:09:04;;;;;;;10.82;8.27;;;;;;;24.08;62.19;101192.34;4973534;28;123902;-64
2021/09/10 08:11:33;;;;;;;10.43;8.25;;;;;;;24.12;62.11;101188.34;4970331;28;124728;-65
2021/09/10 08:14:03;;;;;;;10.73;8.00;;;;;;;24.16;61.91;101184.31;4973694;28;113156;-65
2021/09/10 08:16:30;;;;;;;11.10;8.38;;;;;;;24.22;61.91;101189.16;4974106;28;114295;-66
2021/09/10 08:18:57;;;;;;;13.10;8.75;;;;;;;24.29;61.71;101190.25;4972753;28;124874;-67
2021/09/10 08:21:42;;;;;;;11.80;7.75;;;;;;;24.34;61.91;101197.09;4958166;28;124257;-67
2021/09/10 08:24:09;;;;;;;10.73;8.18;;;;;;;24.39;61.76;101194.75;4963895;28;114175;-65
2021/09/10 08:26:37;;;;;;;10.65;8.07;;;;;;;24.46;61.66;101195.88;4967710;28;112892;-65
2021/09/10 08:29:04;;;;;;;11.30;7.85;;;;;;;24.48;61.15;101193.84;4972653;28;123047;-65
2021/09/10 08:31:31;;;;;;;14.25;8.48;;;;;;;24.49;61.14;101201.00;4970244;28;123764;-65
2021/09/10 08:34:00;;;;;;;11.82;7.60;;;;;;;24.52;61.22;101191.72;4958774;28;115252;-65
2021/09/10 08:36:28;;;;;;;10.70;8.00;;;;;;;24.56;61.40;101191.25;4962674;28;115357;-65
2021/09/10 08:38:55;;;;;;;11.65;8.00;;;;;;;24.62;61.03;101195.22;4968228;28;123856;-65
2021/09/10 08:41:26;;;;;;;12.20;8.38;;;;;;;24.67;61.16;101199.16;4969926;28;124092;-65
2021/09/10 08:43:57;;;;;;;10.18;7.82;;;;;;;24.75;60.97;101194.84;4972615;28;114875;-65
2021/09/10 08:46:24;;;;;;;11.00;7.55;;;;;;;24.83;60.78;101203.09;4973855;28;114319;-65
2021/09/10 08:48:52;;;;;;;11.20;7.60;;;;;;;24.90;60.76;101198.72;4969766;28;123974;-64
2021/09/10 08:51:19;;;;;;;9.98;7.22;;;;;;;24.98;60.97;101201.53;4970772;28;125027;-65
2021/09/10 08:53:46;;;;;;;11.10;6.78;;;;;;;25.04;60.31;101195.50;4957177;28;113155;-65
2021/09/10 08:56:14;;;;;;;10.05;6.40;;;;;;;25.10;60.15;101198.59;4962144;28;114424;-65
2021/09/10 08:58:41;;;;;;;11.88;7.43;;;;;;;25.14;59.93;101208.13;4988259;28;123375;-65
2021/09/10 09:01:08;;;;;;;10.40;7.05;;;;;;;25.17;59.99;101205.09;4969525;28;123865;-65
2021/09/10 09:03:36;;;;;;;12.85;7.05;;;;;;;25.22;59.71;101206.34;4974209;28;114138;-65
2021/09/10 09:06:03;;;;;;;10.13;6.43;;;;;;;25.29;60.17;101198.44;4972735;28;114035;-65
2021/09/10 09:08:31;;;;;;;9.90;6.68;;;;;;;25.35;59.72;101208.66;4971696;28;123167;-65
2021/09/10 09:11:03;;;;;;;9.73;6.10;;;;;;;25.42;59.20;101208.91;4972353;28;123790;-65
2021/09/10 09:13:36;;;;;;;9.43;6.50;;;;;;;25.50;59.49;101208.09;4971399;28;114266;-65
2021/09/10 09:16:18;;;;;;;10.82;6.45;;;;;;;25.57;59.29;101201.88;4973702;28;114507;-65
2021/09/10 09:18:54;;;;;;;9.15;5.97;;;;;;;25.66;58.97;101202.81;4969424;28;124618;-65
2021/09/10 09:21:25;;;;;;;;;;;;;;;25.74;59.63;101208.28;4970494;28;125152;-65
2021/09/10 09:23:55;;;;;;;8.15;5.60;;;;;;;25.86;58.84;101211.56;4972121;28;114257;-65
2021/09/10 09:26:28;;;;;;;8.80;6.22;;;;;;;25.95;58.66;101209.78;4972724;28;115188;-65
2021/09/10 09:29:21;;;;;;;8.90;6.35;;;;;;;26.01;58.81;101209.13;4958819;28;124070;-65
2021/09/10 09:31:57;;;;;;;8.13;5.15;;;;;;;26.09;58.28;101206.50;4970221;28;124746;-65
2021/09/10 09:34:49;;;;;;;7.20;5.65;;;;;;;26.21;58.45;101221.47;4970523;28;114528;-65
2021/09/10 09:37:19;;;;;;;8.05;5.45;;;;;;;26.33;58.12;101213.88;4962013;28;114024;-65
2021/09/10 09:39:57;;;;;;;7.50;5.30;;;;;;;26.43;57.74;101219.19;4959298;28;124904;-65
2021/09/10 09:42:29;;;;;;;6.75;4.70;;;;;;;26.55;57.71;101220.56;4970973;28;124451;-65
2021/09/10 09:45:16;;;;;;;8.00;4.63;;;;;;;26.65;57.60;101216.91;4971103;28;114362;-64
2021/09/10 09:47:43;;;;;;;6.13;4.35;;;;;;;26.74;57.31;101210.47;4953818;28;114602;-65
2021/09/10 09:50:13;;;;;;;5.32;4.25;;;;;;;26.84;57.16;101222.03;4949982;28;124054;-65
2021/09/10 09:52:40;;;;;;;5.60;4.20;;;;;;;26.92;56.73;101213.91;4969229;28;124524;-65
2021/09/10 09:55:09;;;;;;;5.75;4.20;;;;;;;26.99;56.28;101220.41;4972308;28;114668;-65
2021/09/10 09:57:36;;;;;;;6.50;4.13;;;;;;;27.08;56.05;101223.13;4972665;28;114316;-65
2021/09/10 10:00:05;;;;;;;6.75;4.15;;;;;;;27.16;56.18;101220.38;4971070;28;123852;-65
2021/09/10 10:02:36;;;;;;;6.70;4.15;;;;;;;27.25;56.23;101224.84;4971522;28;122765;-65
2021/09/10 10:05:05;;;;;;;6.57;4.13;;;;;;;27.35;55.95;101220.09;4971095;28;114537;-65
2021/09/10 10:07:47;;;;;;;5.93;3.88;;;;;;;27.46;55.89;101226.22;4970648;28;114252;-65
2021/09/10 10:10:21;;;;;;;5.85;3.53;;;;;;;27.55;55.22;101223.31;4953601;28;124418;-65
2021/09/10 10:12:52;;;;;;;6.38;3.63;;;;;;;27.62;55.42;101220.78;4967220;28;124103;-65
2021/09/10 10:15:21;;;;;;;5.30;3.70;;;;;;;27.74;55.03;101213.94;4970558;28;115305;-65
2021/09/10 10:17:49;;;;;;;5.95;3.78;;;;;;;27.86;54.72;101216.28;4970012;28;114722;-65
2021/09/10 10:20:44;;;;;;;5.18;3.70;;;;;;;27.96;54.34;101217.00;4990196;22;124026;-64
2021/09/10 10:23:42;;;;;;;5.18;3.47;;;;;;;28.06;54.35;101217.63;4981936;28;124178;-63
2021/09/10 10:26:15;;;;;;;5.57;3.28;;;;;;;28.17;53.91;101207.41;4972061;28;114177;-64
2021/09/10 10:28:46;;;;;;;5.15;3.70;;;;;;;28.27;53.79;101208.88;4968464;28;114414;-64
2021/09/10 10:31:18;;;;;;;5.18;3.58;;;;;;;28.37;52.97;101200.50;4969587;28;124384;-63
2021/09/10 10:34:09;;;;;;;4.53;3.53;;;;;;;28.42;53.56;101206.25;4970315;28;124047;-63
2021/09/10 10:37:37;;;;;;;5.63;3.90;;;;;;;28.51;53.37;101209.78;4981597;28;115098;-63
2021/09/10 10:40:35;;;;;;;5.57;3.40;;;;;;;28.61;53.26;101209.59;4970242;28;113541;-64
2021/09/10 10:43:06;;;;;;;5.13;3.45;;;;;;;28.71;52.64;101200.19;4963285;28;122899;-65
2021/09/10 10:45:42;;;;;;;5.22;3.05;;;;;;;28.82;52.65;101212.56;4968448;28;124586;-64
2021/09/10 10:48:28;;;;;;;5.20;3.00;;;;;;;28.94;52.67;101196.63;4973128;28;114866;-64
2021/09/10 10:50:57;;;;;;;4.38;2.80;;;;;;;29.01;51.86;101199.44;4969749;28;114091;-65
2021/09/10 10:53:24;;;;;;;5.60;2.90;;;;;;;29.05;51.57;101184.44;4973185;28;124829;-65
2021/09/10 10:55:51;;;;;;;4.15;2.85;;;;;;;29.06;51.01;101188.84;4985470;28;122999;-66
2021/09/10 10:58:26;;;;;;;4.70;2.92;;;;;;;29.00;50.72;101181.41;4970323;28;114604;-64
2021/09/10 11:01:04;;;;;;;4.93;2.80;;;;;;;28.94;50.81;101193.91;4970456;28;113963;-64
2021/09/10 11:03:33;;;;;;;4.15;3.08;;;;;;;28.90;50.70;101182.50;4960893;28;124408;-64
2021/09/10 11:06:27;;;;;;;3.45;2.67;;;;;;;28.85;50.65;101179.47;4974260;28;124149;-64
2021/09/10 11:08:54;;;;;;;4.45;2.78;;;;;;;28.86;51.02;101170.25;4974249;28;115028;-64
2021/09/10 11:11:24;;;;;;;8.05;2.80;;;;;;;28.87;50.68;101155.59;4972782;28;114830;-64
2021/09/10 11:13:52;;;;;;;4.07;2.45;;;;;;;28.87;50.50;101161.03;4973669;28;123891;-64
2021/09/10 11:16:27;;;;;;;4.90;2.72;;;;;;;28.84;50.59;101166.88;4974566;28;124464;-64
2021/09/10 11:18:55;;;;;;;4.38;2.80;;;;;;;28.84;50.65;101155.09;4970689;28;114354;-64
2021/09/10 11:21:28;;;;;;;4.38;2.72;;;;;;;28.85;50.71;101157.63;4974706;28;113898;-64